Time,TemperatureF,DewpointF,PressureIn,WindDirection,WindDirectionDegrees,WindSpeedMPH,WindSpeedGustMPH,Humidity,HourlyPrecipIn,Conditions,Clouds,dailyrainin,SoftwareType,DateUTC
2013-04-30 00:00:00,52.8,50.2,29.99,SW,229,0.0,0.0,91,0.00,,OVC090,0.02,VWS V14.01,2013-04-30 04:00:00,
2013-04-30 00:01:00,52.6,50.0,29.99,SW,229,0.0,0.0,91,0.00,,BKN060,0.00,VWS V14.01,2013-04-30 04:01:00,
2013-04-30 00:06:00,52.5,50.0,29.99,SW,229,0.0,0.0,91,0.00,,,0.00,VWS V14.01,2013-04-30 04:06:00,
2013-04-30 00:11:00,52.3,50.0,29.99,SW,229,0.0,0.0,92,0.00,,,0.00,VWS V14.01,2013-04-30 04:11:00,
2013-04-30 00:15:00,52.3,50.0,29.99,SW,229,0.0,0.0,92,0.00,,OVC090,0.00,VWS V14.01,2013-04-30 04:15:00,
2013-04-30 00:16:00,52.3,50.0,29.99,SW,229,0.0,0.0,92,0.00,,,0.00,VWS V14.01,2013-04-30 04:16:00,
2013-04-30 00:21:00,52.3,50.0,29.99,SW,229,0.0,0.0,92,0.00,,,0.00,VWS V14.01,2013-04-30 04:21:00,
2013-04-30 00:26:00,52.3,50.3,29.99,SW,229,0.0,0.0,93,0.00,,,0.00,VWS V14.01,2013-04-30 04:26:00,
2013-04-30 00:30:00,52.3,50.3,29.99,SW,229,0.0,0.0,93,0.00,,OVC090,0.00,VWS V14.01,2013-04-30 04:30:00,
2013-04-30 00:31:00,52.3,50.0,29.99,SW,229,0.0,0.0,92,0.00,,,0.00,VWS V14.01,2013-04-30 04:31:00,
2013-04-30 00:36:00,52.2,50.0,29.99,SW,229,0.0,0.0,92,0.00,,,0.00,VWS V14.01,2013-04-30 04:36:00,
2013-04-30 00:41:00,52.0,49.8,30.00,SW,229,0.0,0.0,92,0.00,,,0.00,VWS V14.01,2013-04-30 04:41:00,
2013-04-30 00:45:00,52.0,49.8,30.00,SW,229,0.0,0.0,92,0.00,,OVC090,0.00,VWS V14.01,2013-04-30 04:45:00,
2013-04-30 00:47:00,51.9,49.9,30.00,SW,229,0.0,0.0,93,0.00,,,0.00,VWS V14.01,2013-04-30 04:47:00,
2013-04-30 00:52:00,51.9,49.9,30.00,SW,229,0.0,0.0,93,0.00,,,0.00,VWS V14.01,2013-04-30 04:52:00,
2013-04-30 00:57:00,51.9,49.9,30.00,SW,229,0.0,0.0,93,0.00,,,0.00,VWS V14.01,2013-04-30 04:57:00,
2013-04-30 01:00:00,51.7,49.8,30.00,SW,229,0.0,0.0,93,0.00,,OVC090,0.00,VWS V14.01,2013-04-30 05:00:00,
2013-04-30 01:02:00,51.7,49.5,30.00,SW,229,0.0,0.0,92,0.00,,,0.00,VWS V14.01,2013-04-30 05:02:00,
2013-04-30 01:07:00,51.3,49.1,30.00,SW,229,0.0,0.0,92,0.00,,,0.00,VWS V14.01,2013-04-30 05:07:00,
2013-04-30 01:12:00,50.8,48.6,29.99,SW,229,0.0,0.0,92,0.00,,,0.00,VWS V14.01,2013-04-30 05:12:00,
2013-04-30 01:15:00,50.5,48.3,29.99,SW,229,0.0,0.0,92,0.00,,OVC090,0.00,VWS V14.01,2013-04-30 05:15:00,
2013-04-30 01:17:00,50.4,48.5,29.99,SW,229,0.0,0.0,93,0.00,,,0.00,VWS V14.01,2013-04-30 05:17:00,
2013-04-30 01:22:00,50.2,48.3,29.99,SW,229,0.0,0.0,93,0.00,,,0.00,VWS V14.01,2013-04-30 05:22:00,
2013-04-30 01:27:00,50.2,48.3,29.99,SW,229,0.0,0.0,93,0.00,,,0.00,VWS V14.01,2013-04-30 05:27:00,
2013-04-30 01:30:00,50.1,48.2,29.99,SW,229,0.0,0.0,93,0.00,,OVC090,0.00,VWS V14.01,2013-04-30 05:30:00,
2013-04-30 01:32:00,50.1,48.2,29.99,SW,229,0.0,0.0,93,0.00,,,0.00,VWS V14.01,2013-04-30 05:32:00,
2013-04-30 01:37:00,50.1,48.2,29.99,SW,229,0.0,0.0,93,0.00,,,0.00,VWS V14.01,2013-04-30 05:37:00,
2013-04-30 01:42:00,50.1,48.2,29.99,SW,229,0.0,0.0,93,0.00,,,0.00,VWS V14.01,2013-04-30 05:42:00,
2013-04-30 01:45:00,50.1,48.2,29.99,SW,229,0.0,0.0,93,0.00,,OVC090,0.00,VWS V14.01,2013-04-30 05:45:00,
2013-04-30 01:47:00,50.1,48.2,29.99,SW,229,0.0,0.0,93,0.00,,,0.00,VWS V14.01,2013-04-30 05:47:00,
2013-04-30 01:52:00,50.2,48.3,30.00,SW,229,0.0,0.0,93,0.00,,,0.00,VWS V14.01,2013-04-30 05:52:00,
2013-04-30 01:57:00,50.2,48.3,30.00,SW,229,0.0,0.0,93,0.00,,,0.00,VWS V14.01,2013-04-30 05:57:00,
2013-04-30 02:00:00,50.2,48.3,30.00,SW,229,0.0,0.0,93,0.00,,OVC090,0.00,VWS V14.01,2013-04-30 06:00:00,
2013-04-30 02:02:00,50.2,48.3,30.00,SW,229,0.0,0.0,93,0.00,,,0.00,VWS V14.01,2013-04-30 06:02:00,
2013-04-30 02:07:00,50.1,48.2,30.00,SW,229,0.0,0.0,93,0.00,,,0.00,VWS V14.01,2013-04-30 06:07:00,
2013-04-30 02:12:00,49.8,47.9,30.00,SW,229,0.0,0.0,93,0.00,,,0.00,VWS V14.01,2013-04-30 06:12:00,
2013-04-30 02:15:00,49.6,47.7,30.00,SW,229,0.0,0.0,93,0.00,,OVC090,0.00,VWS V14.01,2013-04-30 06:15:00,
2013-04-30 02:17:00,49.5,47.6,30.00,SW,229,0.0,0.0,93,0.00,,,0.00,VWS V14.01,2013-04-30 06:17:00,
2013-04-30 02:22:00,49.4,47.5,30.00,SW,229,0.0,0.0,93,0.00,,,0.00,VWS V14.01,2013-04-30 06:22:00,
2013-04-30 02:27:00,49.2,47.3,30.00,SW,229,0.0,0.0,93,0.00,,,0.00,VWS V14.01,2013-04-30 06:27:00,
2013-04-30 02:30:00,49.2,47.3,30.00,SW,229,0.0,0.0,93,0.00,,OVC090,0.00,VWS V14.01,2013-04-30 06:30:00,
2013-04-30 02:32:00,49.1,47.2,30.00,SW,229,0.0,0.0,93,0.00,,,0.00,VWS V14.01,2013-04-30 06:32:00,
2013-04-30 02:37:00,48.9,47.0,30.00,SW,229,0.0,0.0,93,0.00,,,0.00,VWS V14.01,2013-04-30 06:37:00,
2013-04-30 02:42:00,48.8,46.9,30.00,SW,229,0.0,0.0,93,0.00,,,0.00,VWS V14.01,2013-04-30 06:42:00,
2013-04-30 02:45:00,48.6,46.7,30.00,SW,229,0.0,0.0,93,0.00,,OVC090,0.00,VWS V14.01,2013-04-30 06:45:00,
2013-04-30 02:47:00,48.5,46.6,30.00,SW,229,0.0,0.0,93,0.00,,,0.00,VWS V14.01,2013-04-30 06:47:00,
2013-04-30 02:52:00,48.5,46.6,30.00,SW,229,0.0,0.0,93,0.00,,,0.00,VWS V14.01,2013-04-30 06:52:00,
2013-04-30 02:57:00,48.5,46.9,30.00,SW,229,0.0,0.0,94,0.00,,,0.00,VWS V14.01,2013-04-30 06:57:00,
2013-04-30 03:00:00,48.5,46.9,30.00,SW,229,0.0,0.0,94,0.00,,OVC090,0.00,VWS V14.01,2013-04-30 07:00:00,
2013-04-30 03:02:00,48.5,46.9,30.00,SW,229,0.0,0.0,94,0.00,,,0.00,VWS V14.01,2013-04-30 07:02:00,
2013-04-30 03:07:00,48.3,46.7,30.01,SW,229,0.0,0.0,94,0.00,,,0.00,VWS V14.01,2013-04-30 07:07:00,
2013-04-30 03:12:00,48.2,46.3,30.01,SW,229,0.0,0.0,93,0.00,,,0.00,VWS V14.01,2013-04-30 07:12:00,
2013-04-30 03:15:00,48.2,46.3,30.01,SW,229,0.0,0.0,93,0.00,,OVC090,0.00,VWS V14.01,2013-04-30 07:15:00,
2013-04-30 03:17:00,48.0,46.4,30.01,SW,229,0.0,0.0,94,0.00,,,0.00,VWS V14.01,2013-04-30 07:17:00,
2013-04-30 03:22:00,48.0,46.4,30.01,SW,229,0.0,0.0,94,0.00,,,0.00,VWS V14.01,2013-04-30 07:22:00,
2013-04-30 03:27:00,47.9,46.3,30.01,SW,229,0.0,0.0,94,0.00,,,0.00,VWS V14.01,2013-04-30 07:27:00,
2013-04-30 03:30:00,47.9,46.3,30.01,SW,229,0.0,0.0,94,0.00,,OVC090,0.00,VWS V14.01,2013-04-30 07:30:00,
2013-04-30 03:32:00,47.7,46.1,30.01,SW,229,0.0,0.0,94,0.00,,,0.00,VWS V14.01,2013-04-30 07:32:00,
2013-04-30 03:37:00,47.7,46.1,30.01,SW,229,0.0,0.0,94,0.00,,,0.00,VWS V14.01,2013-04-30 07:37:00,
2013-04-30 03:42:00,47.7,46.1,30.01,SW,229,0.0,0.0,94,0.00,,,0.00,VWS V14.01,2013-04-30 07:42:00,
2013-04-30 03:45:00,47.6,46.0,30.01,SW,229,0.0,0.0,94,0.00,,OVC090,0.00,VWS V14.01,2013-04-30 07:45:00,
2013-04-30 03:47:00,47.6,46.0,30.01,SW,229,0.0,0.0,94,0.00,,,0.00,VWS V14.01,2013-04-30 07:47:00,
2013-04-30 03:53:00,47.4,45.8,30.02,SW,229,0.0,0.0,94,0.00,,,0.00,VWS V14.01,2013-04-30 07:53:00,
2013-04-30 03:58:00,47.4,45.8,30.02,SW,229,0.0,0.0,94,0.00,,,0.00,VWS V14.01,2013-04-30 07:58:00,
2013-04-30 04:00:00,47.4,45.8,30.02,SW,229,0.0,0.0,94,0.00,,OVC090,0.00,VWS V14.01,2013-04-30 08:00:00,
2013-04-30 04:03:00,47.3,45.7,30.02,SW,229,0.0,0.0,94,0.00,,,0.00,VWS V14.01,2013-04-30 08:03:00,
2013-04-30 04:08:00,47.1,45.5,30.02,SW,229,0.0,0.0,94,0.00,,,0.00,VWS V14.01,2013-04-30 08:08:00,
2013-04-30 04:13:00,47.1,45.5,30.02,SW,229,0.0,0.0,94,0.00,,,0.00,VWS V14.01,2013-04-30 08:13:00,
2013-04-30 04:15:00,47.0,45.4,30.02,SW,229,0.0,0.0,94,0.00,,OVC090,0.00,VWS V14.01,2013-04-30 08:15:00,
2013-04-30 04:18:00,47.0,45.4,30.02,SW,229,0.0,0.0,94,0.00,,,0.00,VWS V14.01,2013-04-30 08:18:00,
2013-04-30 04:23:00,47.0,45.4,30.02,SW,229,0.0,0.0,94,0.00,,,0.00,VWS V14.01,2013-04-30 08:23:00,
2013-04-30 04:28:00,47.0,45.4,30.02,SW,229,0.0,0.0,94,0.00,,,0.00,VWS V14.01,2013-04-30 08:28:00,
2013-04-30 04:30:00,47.0,45.4,30.02,SW,229,0.0,0.0,94,0.00,,OVC090,0.00,VWS V14.01,2013-04-30 08:30:00,
2013-04-30 04:33:00,47.0,45.4,30.02,SW,229,0.0,0.0,94,0.00,,,0.00,VWS V14.01,2013-04-30 08:33:00,
2013-04-30 04:38:00,47.0,45.4,30.02,SW,229,0.0,0.0,94,0.00,,,0.00,VWS V14.01,2013-04-30 08:38:00,
2013-04-30 04:43:00,47.0,45.4,30.03,SW,229,0.0,0.0,94,0.00,,,0.00,VWS V14.01,2013-04-30 08:43:00,
2013-04-30 04:45:00,47.0,45.4,30.03,SW,229,0.0,0.0,94,0.00,,OVC090,0.00,VWS V14.01,2013-04-30 08:45:00,
2013-04-30 04:48:00,47.0,45.4,30.03,SW,229,0.0,0.0,94,0.00,,,0.00,VWS V14.01,2013-04-30 08:48:00,
2013-04-30 04:53:00,47.0,45.4,30.03,SW,229,0.0,0.0,94,0.00,,,0.00,VWS V14.01,2013-04-30 08:53:00,
2013-04-30 04:58:00,46.8,45.2,30.03,SW,229,0.0,0.0,94,0.00,,,0.00,VWS V14.01,2013-04-30 08:58:00,
2013-04-30 05:00:00,46.8,45.2,30.03,SW,229,0.0,0.0,94,0.00,,OVC090,0.00,VWS V14.01,2013-04-30 09:00:00,
2013-04-30 05:03:00,46.7,45.1,30.03,SW,229,0.0,0.0,94,0.00,,,0.00,VWS V14.01,2013-04-30 09:03:00,
2013-04-30 05:08:00,46.7,45.1,30.03,SW,229,0.0,0.0,94,0.00,,,0.00,VWS V14.01,2013-04-30 09:08:00,
2013-04-30 05:13:00,46.5,44.9,30.03,SW,229,0.0,0.0,94,0.00,,,0.00,VWS V14.01,2013-04-30 09:13:00,
2013-04-30 05:15:00,46.5,44.9,30.03,SW,229,0.0,0.0,94,0.00,,OVC090,0.00,VWS V14.01,2013-04-30 09:15:00,
2013-04-30 05:18:00,46.5,44.9,30.03,SW,229,0.0,0.0,94,0.00,,,0.00,VWS V14.01,2013-04-30 09:18:00,
2013-04-30 05:23:00,46.5,44.9,30.03,SW,229,0.0,0.0,94,0.00,,,0.00,VWS V14.01,2013-04-30 09:23:00,
2013-04-30 05:28:00,46.4,44.8,30.03,SW,229,0.0,0.0,94,0.00,,,0.00,VWS V14.01,2013-04-30 09:28:00,
2013-04-30 05:30:00,46.4,44.8,30.03,SW,229,0.0,0.0,94,0.00,,OVC090,0.00,VWS V14.01,2013-04-30 09:30:00,
2013-04-30 05:33:00,46.4,44.8,30.03,SW,229,0.0,0.0,94,0.00,,,0.00,VWS V14.01,2013-04-30 09:33:00,
2013-04-30 05:38:00,46.4,44.8,30.03,SW,229,0.0,0.0,94,0.00,,,0.00,VWS V14.01,2013-04-30 09:38:00,
2013-04-30 05:43:00,46.5,45.2,30.03,SW,229,0.0,0.0,95,0.00,,,0.00,VWS V14.01,2013-04-30 09:43:00,
2013-04-30 05:45:00,46.5,45.2,30.03,SW,229,0.0,0.0,95,0.00,,OVC090,0.00,VWS V14.01,2013-04-30 09:45:00,
2013-04-30 05:48:00,46.7,45.3,30.03,SW,229,0.0,0.0,95,0.00,,,0.00,VWS V14.01,2013-04-30 09:48:00,
2013-04-30 05:53:00,46.7,45.3,30.03,SW,229,0.0,0.0,95,0.00,,,0.00,VWS V14.01,2013-04-30 09:53:00,
2013-04-30 05:58:00,46.7,45.3,30.03,SW,229,0.0,0.0,95,0.00,,,0.00,VWS V14.01,2013-04-30 09:58:00,
2013-04-30 06:00:00,46.7,45.3,30.03,SW,229,0.0,0.0,95,0.00,,OVC090,0.00,VWS V14.01,2013-04-30 10:00:00,
2013-04-30 06:03:00,46.7,45.3,30.03,SW,229,0.0,0.0,95,0.00,,,0.00,VWS V14.01,2013-04-30 10:03:00,
2013-04-30 06:08:00,46.7,45.3,30.04,SW,229,0.0,0.0,95,0.00,,,0.00,VWS V14.01,2013-04-30 10:08:00,
2013-04-30 06:13:00,46.8,45.5,30.04,SW,229,0.0,0.0,95,0.00,,,0.00,VWS V14.01,2013-04-30 10:13:00,
2013-04-30 06:15:00,46.8,45.5,30.04,SW,229,0.0,0.0,95,0.00,,OVC090,0.00,VWS V14.01,2013-04-30 10:15:00,
2013-04-30 06:18:00,46.8,45.5,30.04,SW,229,0.0,0.0,95,0.00,,,0.00,VWS V14.01,2013-04-30 10:18:00,
2013-04-30 06:23:00,46.8,45.5,30.05,SW,229,0.0,0.0,95,0.00,,,0.00,VWS V14.01,2013-04-30 10:23:00,
2013-04-30 06:28:00,46.8,45.5,30.05,SW,229,0.0,0.0,95,0.00,,,0.00,VWS V14.01,2013-04-30 10:28:00,
2013-04-30 06:30:00,46.8,45.5,30.05,SW,229,0.0,0.0,95,0.00,,OVC090,0.00,VWS V14.01,2013-04-30 10:30:00,
2013-04-30 06:33:00,46.7,45.3,30.05,SW,229,0.0,0.0,95,0.00,,,0.00,VWS V14.01,2013-04-30 10:33:00,
2013-04-30 06:38:00,46.7,45.3,30.05,SW,229,0.0,0.0,95,0.00,,,0.00,VWS V14.01,2013-04-30 10:38:00,
2013-04-30 06:43:00,46.7,45.3,30.05,SW,229,0.0,0.0,95,0.00,,,0.00,VWS V14.01,2013-04-30 10:43:00,
2013-04-30 06:45:00,46.7,45.3,30.06,SW,229,0.0,0.0,95,0.00,,OVC090,0.00,VWS V14.01,2013-04-30 10:45:00,
2013-04-30 06:48:00,46.7,45.3,30.06,SW,229,0.0,0.0,95,0.00,,,0.00,VWS V14.01,2013-04-30 10:48:00,
2013-04-30 06:53:00,46.8,45.5,30.06,SW,229,0.0,0.0,95,0.00,,,0.00,VWS V14.01,2013-04-30 10:53:00,
2013-04-30 06:58:00,46.8,45.5,30.06,SW,229,0.0,0.0,95,0.00,,,0.00,VWS V14.01,2013-04-30 10:58:00,
2013-04-30 07:00:00,47.0,45.9,30.06,SW,229,0.0,0.0,96,0.00,,OVC090,0.00,VWS V14.01,2013-04-30 11:00:00,
2013-04-30 07:03:00,47.0,45.9,30.06,SW,229,0.0,0.0,96,0.00,,,0.00,VWS V14.01,2013-04-30 11:03:00,
2013-04-30 07:08:00,47.1,46.0,30.06,SW,229,0.0,0.0,96,0.00,,,0.00,VWS V14.01,2013-04-30 11:08:00,
2013-04-30 07:13:00,47.3,46.2,30.06,SW,229,0.0,0.0,96,0.00,,,0.00,VWS V14.01,2013-04-30 11:13:00,
2013-04-30 07:15:00,47.3,46.2,30.06,SW,229,0.0,0.0,96,0.00,,OVC090,0.00,VWS V14.01,2013-04-30 11:15:00,
2013-04-30 07:18:00,47.3,46.2,30.06,SW,229,0.0,0.0,96,0.00,,,0.00,VWS V14.01,2013-04-30 11:18:00,
2013-04-30 07:23:00,47.4,46.3,30.06,SW,229,0.0,0.0,96,0.00,,,0.00,VWS V14.01,2013-04-30 11:23:00,
2013-04-30 07:28:00,47.6,46.5,30.07,SW,229,0.0,0.0,96,0.00,,,0.00,VWS V14.01,2013-04-30 11:28:00,
2013-04-30 07:30:00,47.7,46.6,30.06,SW,229,0.0,0.0,96,0.00,,OVC090,0.00,VWS V14.01,2013-04-30 11:30:00,
2013-04-30 07:33:00,47.9,47.1,30.06,SW,229,0.0,0.0,97,0.00,,,0.00,VWS V14.01,2013-04-30 11:33:00,
2013-04-30 07:38:00,48.2,47.7,30.07,SW,229,0.0,0.0,98,0.00,,,0.00,VWS V14.01,2013-04-30 11:38:00,
2013-04-30 07:43:00,48.6,48.6,30.07,SW,229,0.0,0.0,100,0.00,,,0.00,VWS V14.01,2013-04-30 11:43:00,
2013-04-30 07:45:00,48.8,48.8,30.07,SW,229,0.0,0.0,100,0.00,,OVC090,0.00,VWS V14.01,2013-04-30 11:45:00,
2013-04-30 07:48:00,49.1,49.1,30.07,SW,229,0.0,0.0,100,0.00,,,0.00,VWS V14.01,2013-04-30 11:48:00,
2013-04-30 07:53:00,49.4,49.4,30.07,SW,229,0.0,0.0,100,0.00,,,0.00,VWS V14.01,2013-04-30 11:53:00,
2013-04-30 07:59:00,49.6,49.6,30.07,SW,229,0.0,0.0,100,0.00,,,0.00,VWS V14.01,2013-04-30 11:59:00,
2013-04-30 08:00:00,49.6,49.6,30.07,SW,229,0.0,0.0,100,0.00,,OVC090,0.00,VWS V14.01,2013-04-30 12:00:00,
2013-04-30 08:03:00,49.9,49.9,30.07,SW,229,0.0,0.0,100,0.00,,,0.00,VWS V14.01,2013-04-30 12:03:00,
2013-04-30 08:09:00,50.2,50.2,30.07,SW,229,0.0,0.0,100,0.00,,,0.00,VWS V14.01,2013-04-30 12:09:00,
2013-04-30 08:14:00,50.7,50.7,30.08,SW,229,0.0,0.0,100,0.00,,,0.00,VWS V14.01,2013-04-30 12:14:00,
2013-04-30 08:15:00,50.8,50.8,30.08,SW,229,0.0,0.0,100,0.00,,OVC090,0.00,VWS V14.01,2013-04-30 12:15:00,
2013-04-30 08:19:00,51.4,51.4,30.08,SW,229,0.0,0.0,100,0.00,,,0.00,VWS V14.01,2013-04-30 12:19:00,
2013-04-30 08:24:00,51.9,51.9,30.08,SW,229,0.0,0.0,100,0.00,,,0.00,VWS V14.01,2013-04-30 12:24:00,
2013-04-30 08:29:00,52.5,52.5,30.08,SW,229,0.0,0.0,100,0.00,,,0.00,VWS V14.01,2013-04-30 12:29:00,
2013-04-30 08:30:00,52.6,52.6,30.07,SW,229,0.0,0.0,100,0.00,,OVC090,0.00,VWS V14.01,2013-04-30 12:30:00,
2013-04-30 08:34:00,52.8,52.8,30.07,SW,229,0.0,0.0,100,0.00,,,0.00,VWS V14.01,2013-04-30 12:34:00,
2013-04-30 08:39:00,52.8,52.8,30.07,SW,229,0.0,0.0,100,0.00,,,0.00,VWS V14.01,2013-04-30 12:39:00,
2013-04-30 08:44:00,53.2,53.2,30.07,SW,229,0.0,0.0,100,0.00,,,0.00,VWS V14.01,2013-04-30 12:44:00,
2013-04-30 08:45:00,53.2,53.2,30.08,SW,229,0.0,0.0,100,0.00,,OVC090,0.00,VWS V14.01,2013-04-30 12:45:00,
2013-04-30 08:49:00,53.6,53.6,30.08,SW,229,0.0,0.0,100,0.00,,,0.00,VWS V14.01,2013-04-30 12:49:00,
2013-04-30 08:54:00,54.1,54.1,30.08,SW,229,0.0,0.0,100,0.00,,,0.00,VWS V14.01,2013-04-30 12:54:00,
2013-04-30 08:59:00,54.8,54.8,30.08,SW,229,0.0,0.0,100,0.00,,,0.00,VWS V14.01,2013-04-30 12:59:00,
2013-04-30 09:00:00,55.0,55.0,30.08,SW,229,0.0,0.0,100,0.00,,OVC090,0.00,VWS V14.01,2013-04-30 13:00:00,
2013-04-30 09:04:00,55.6,55.6,30.08,SW,229,0.0,0.0,100,0.00,,,0.00,VWS V14.01,2013-04-30 13:04:00,
2013-04-30 09:09:00,56.2,56.2,30.08,SW,229,0.0,0.0,100,0.00,,,0.00,VWS V14.01,2013-04-30 13:09:00,
2013-04-30 09:14:00,56.5,56.5,30.08,SW,229,0.0,0.0,100,0.00,,,0.00,VWS V14.01,2013-04-30 13:14:00,
2013-04-30 09:15:00,56.6,56.6,30.08,SW,229,0.0,0.0,100,0.00,,OVC090,0.00,VWS V14.01,2013-04-30 13:15:00,
2013-04-30 09:19:00,57.0,57.0,30.08,SW,229,0.0,0.0,100,0.00,,,0.00,VWS V14.01,2013-04-30 13:19:00,
2013-04-30 09:24:00,57.5,56.9,30.08,SE,128,0.0,0.0,98,0.00,,,0.00,VWS V14.01,2013-04-30 13:24:00,
2013-04-30 09:29:00,58.0,57.4,30.08,SE,128,0.0,0.0,98,0.00,,,0.00,VWS V14.01,2013-04-30 13:29:00,
2013-04-30 09:30:00,58.0,56.9,30.08,SE,128,0.0,0.0,96,0.00,,OVC090,0.00,VWS V14.01,2013-04-30 13:30:00,
2013-04-30 09:34:00,58.4,56.7,30.08,SE,128,0.0,0.0,94,0.00,,,0.00,VWS V14.01,2013-04-30 13:34:00,
2013-04-30 09:39:00,59.0,56.7,30.08,SE,128,0.0,0.0,92,0.00,,,0.00,VWS V14.01,2013-04-30 13:39:00,
2013-04-30 09:44:00,59.9,57.0,30.08,SE,128,0.0,0.0,90,0.00,,,0.00,VWS V14.01,2013-04-30 13:44:00,
2013-04-30 09:45:00,60.1,57.2,30.08,SE,128,0.0,0.0,90,0.00,,OVC090,0.00,VWS V14.01,2013-04-30 13:45:00,
2013-04-30 09:49:00,60.5,56.6,30.08,SE,128,0.0,0.0,87,0.00,,,0.00,VWS V14.01,2013-04-30 13:49:00,
2013-04-30 09:54:00,61.2,56.3,30.08,SE,128,0.0,0.0,84,0.00,,,0.00,VWS V14.01,2013-04-30 13:54:00,
2013-04-30 09:59:00,61.8,56.6,30.07,SE,127,0.0,0.0,83,0.00,,,0.00,VWS V14.01,2013-04-30 13:59:00,
2013-04-30 10:00:00,61.8,56.6,30.07,SE,127,0.0,0.0,83,0.00,,OVC090,0.00,VWS V14.01,2013-04-30 14:00:00,
2013-04-30 10:04:00,62.4,56.8,30.07,South,176,0.0,0.0,82,0.00,,CLR,0.00,VWS V14.01,2013-04-30 14:04:00,
2013-04-30 10:09:00,63.1,56.8,30.07,South,176,0.0,0.0,80,0.00,,CLR,0.00,VWS V14.01,2013-04-30 14:09:00,
2013-04-30 10:14:00,63.7,57.4,30.08,ENE,65,0.0,0.0,80,0.00,,CLR,0.00,VWS V14.01,2013-04-30 14:14:00,
2013-04-30 10:15:00,63.9,56.9,30.08,ENE,65,0.0,0.0,78,0.00,,OVC090,0.00,VWS V14.01,2013-04-30 14:15:00,
2013-04-30 10:19:00,64.3,57.3,30.08,SE,126,0.0,1.0,78,0.00,,CLR,0.00,VWS V14.01,2013-04-30 14:19:00,
2013-04-30 10:24:00,65.0,57.6,30.07,East,86,0.0,1.0,77,0.00,,CLR,0.00,VWS V14.01,2013-04-30 14:24:00,
2013-04-30 10:29:00,65.6,56.7,30.07,SSW,210,0.0,7.0,73,0.00,,CLR,0.00,VWS V14.01,2013-04-30 14:29:00,
2013-04-30 10:30:00,65.8,56.9,30.07,SSW,210,0.0,7.0,73,0.00,,OVC090,0.00,VWS V14.01,2013-04-30 14:30:00,
2013-04-30 10:34:00,66.4,56.7,30.07,SSW,210,0.0,7.0,71,0.00,,CLR,0.00,VWS V14.01,2013-04-30 14:34:00,
2013-04-30 10:39:00,66.9,58.0,30.08,SSW,209,0.0,0.0,73,0.00,,CLR,0.00,VWS V14.01,2013-04-30 14:39:00,
2013-04-30 10:44:00,67.3,56.4,30.07,South,176,0.0,1.0,68,0.00,,CLR,0.00,VWS V14.01,2013-04-30 14:44:00,
2013-04-30 10:45:00,67.3,56.4,30.07,South,176,0.0,1.0,68,0.00,,OVC090,0.00,VWS V14.01,2013-04-30 14:45:00,
2013-04-30 10:49:00,67.8,56.9,30.07,ESE,117,0.0,1.0,68,0.00,,CLR,0.00,VWS V14.01,2013-04-30 14:49:00,
2013-04-30 10:54:00,67.6,56.7,30.07,ESE,117,0.0,0.0,68,0.00,,CLR,0.00,VWS V14.01,2013-04-30 14:54:00,
2013-04-30 10:59:00,67.9,56.1,30.07,ESE,104,0.0,1.0,66,0.00,,CLR,0.00,VWS V14.01,2013-04-30 14:59:00,
2013-04-30 11:00:00,67.9,56.1,30.07,ESE,104,0.0,1.0,66,0.00,,OVC090,0.00,VWS V14.01,2013-04-30 15:00:00,
2013-04-30 11:04:00,68.3,56.5,30.07,South,186,0.0,2.0,66,0.00,,CLR,0.00,VWS V14.01,2013-04-30 15:04:00,
2013-04-30 11:09:00,68.4,55.8,30.08,ESE,123,0.0,2.0,64,0.00,,CLR,0.00,VWS V14.01,2013-04-30 15:09:00,
2013-04-30 11:14:00,68.4,55.3,30.08,ENE,58,0.0,2.0,63,0.00,,CLR,0.00,VWS V14.01,2013-04-30 15:14:00,
2013-04-30 11:15:00,68.4,55.3,30.08,ENE,59,0.0,2.0,63,0.00,,OVC090,0.00,VWS V14.01,2013-04-30 15:15:00,
2013-04-30 11:20:00,68.6,55.1,30.08,SE,140,0.0,6.0,62,0.00,,CLR,0.00,VWS V14.01,2013-04-30 15:20:00,
2013-04-30 11:25:00,69.1,56.4,30.07,SSW,212,0.0,6.0,64,0.00,,CLR,0.00,VWS V14.01,2013-04-30 15:25:00,
2013-04-30 11:30:00,69.6,55.1,30.07,South,174,0.0,7.0,60,0.00,,CLR,0.00,VWS V14.01,2013-04-30 15:30:00,
2013-04-30 11:35:00,70.3,55.3,30.08,South,184,0.0,6.0,59,0.00,,CLR,0.00,VWS V14.01,2013-04-30 15:35:00,
2013-04-30 11:40:00,70.6,56.1,30.07,SSE,151,0.0,1.0,60,0.00,,CLR,0.00,VWS V14.01,2013-04-30 15:40:00,
2013-04-30 11:45:00,70.8,55.3,30.07,SW,219,0.0,2.0,58,0.00,,CLR,0.00,VWS V14.01,2013-04-30 15:45:00,
2013-04-30 11:50:00,70.9,56.3,30.08,SSW,193,0.0,2.0,60,0.00,,CLR,0.00,VWS V14.01,2013-04-30 15:50:00,
2013-04-30 11:55:00,70.9,55.4,30.08,SE,145,0.0,1.0,58,0.00,,CLR,0.00,VWS V14.01,2013-04-30 15:55:00,
2013-04-30 12:00:00,70.4,54.0,30.07,SSE,147,0.0,0.0,56,0.00,,CLR,0.00,VWS V14.01,2013-04-30 16:00:00,
2013-04-30 12:05:00,70.4,54.9,30.08,SSE,147,0.0,0.0,58,0.00,,SCT035,0.00,VWS V14.01,2013-04-30 16:05:00,
2013-04-30 12:10:00,70.9,55.9,30.07,SSE,147,0.0,0.0,59,0.00,,SCT035,0.00,VWS V14.01,2013-04-30 16:10:00,
2013-04-30 12:15:00,71.3,56.2,30.07,South,171,0.0,3.0,59,0.00,,SCT035,0.00,VWS V14.01,2013-04-30 16:15:00,
2013-04-30 12:20:00,71.1,57.0,30.07,SSW,200,0.0,3.0,61,0.00,,SCT035,0.00,VWS V14.01,2013-04-30 16:20:00,
2013-04-30 12:25:00,70.9,55.4,30.07,WSW,248,0.0,5.0,58,0.00,,SCT035,0.00,VWS V14.01,2013-04-30 16:25:00,
2013-04-30 12:30:00,71.5,56.0,30.07,SSW,195,0.0,1.0,58,0.00,,SCT035,0.00,VWS V14.01,2013-04-30 16:30:00,
2013-04-30 12:35:00,71.5,55.0,30.07,NE,49,0.0,0.0,56,0.00,,SCT035,0.00,VWS V14.01,2013-04-30 16:35:00,
2013-04-30 12:40:00,70.9,56.8,30.07,SE,141,0.0,1.0,61,0.00,,SCT035,0.00,VWS V14.01,2013-04-30 16:40:00,
2013-04-30 12:45:00,70.6,56.1,30.07,SE,141,0.0,1.0,60,0.00,,SCT035,0.00,VWS V14.01,2013-04-30 16:45:00,
2013-04-30 12:50:00,70.8,57.2,30.07,South,175,0.0,0.0,62,0.00,,SCT035,0.00,VWS V14.01,2013-04-30 16:50:00,
2013-04-30 12:55:00,70.9,55.9,30.07,WSW,254,0.0,6.0,59,0.00,,SCT035,0.00,VWS V14.01,2013-04-30 16:55:00,
2013-04-30 13:00:00,70.8,54.3,30.07,WSW,240,0.0,6.0,56,0.00,,SCT035,0.00,VWS V14.01,2013-04-30 17:00:00,
2013-04-30 13:05:00,71.1,56.5,30.07,WSW,240,0.0,0.0,60,0.00,,BKN041,0.00,VWS V14.01,2013-04-30 17:05:00,
2013-04-30 13:10:00,71.8,55.8,30.06,NW,304,0.0,2.0,57,0.00,,BKN041,0.00,VWS V14.01,2013-04-30 17:10:00,
2013-04-30 13:15:00,72.3,55.2,30.07,NW,312,0.0,2.0,55,0.00,,BKN041,0.00,VWS V14.01,2013-04-30 17:15:00,
2013-04-30 13:20:00,72.3,55.2,30.07,NW,312,0.0,0.0,55,0.00,,BKN041,0.00,VWS V14.01,2013-04-30 17:20:00,
2013-04-30 13:25:00,71.8,54.8,30.07,NW,309,0.0,0.0,55,0.00,,BKN041,0.00,VWS V14.01,2013-04-30 17:25:00,
2013-04-30 13:30:00,72.1,56.0,30.06,NNW,332,0.0,5.0,57,0.00,,BKN041,0.00,VWS V14.01,2013-04-30 17:30:00,
2013-04-30 13:35:00,72.5,55.4,30.07,North,8,0.0,5.0,55,0.00,,BKN041,0.00,VWS V14.01,2013-04-30 17:35:00,
2013-04-30 13:40:00,73.2,58.0,30.07,North,10,0.0,1.0,59,0.00,,BKN041,0.00,VWS V14.01,2013-04-30 17:40:00,
2013-04-30 13:45:00,74.2,58.0,30.06,NNE,30,0.0,1.0,57,0.00,,BKN041,0.00,VWS V14.01,2013-04-30 17:45:00,
2013-04-30 13:50:00,74.2,57.0,30.06,NNE,25,0.0,1.0,55,0.00,,BKN041,0.00,VWS V14.01,2013-04-30 17:50:00,
2013-04-30 13:55:00,74.4,55.7,30.07,NNE,25,0.0,0.0,52,0.00,,BKN041,0.00,VWS V14.01,2013-04-30 17:55:00,
2013-04-30 14:00:00,74.2,56.5,30.06,NNE,25,0.0,0.0,54,0.00,,BKN041,0.00,VWS V14.01,2013-04-30 18:00:00,
2013-04-30 14:05:00,74.4,55.7,30.06,NNE,25,0.0,0.0,52,0.00,,SCT041,0.00,VWS V14.01,2013-04-30 18:05:00,
2013-04-30 14:10:00,73.9,55.7,30.06,NNE,25,0.0,1.0,53,0.00,,SCT041,0.00,VWS V14.01,2013-04-30 18:10:00,
2013-04-30 14:15:00,73.0,55.4,30.06,NNE,27,0.0,1.0,54,0.00,,SCT041,0.00,VWS V14.01,2013-04-30 18:15:00,
2013-04-30 14:20:00,73.7,57.0,30.06,NNE,27,0.0,0.0,56,0.00,,SCT041,0.00,VWS V14.01,2013-04-30 18:20:00,
2013-04-30 14:25:00,74.7,55.4,30.06,NNE,21,0.0,0.0,51,0.00,,SCT041,0.00,VWS V14.01,2013-04-30 18:25:00,
2013-04-30 14:30:00,75.8,55.3,30.06,NNE,23,0.0,0.0,49,0.00,,SCT041,0.00,VWS V14.01,2013-04-30 18:30:00,
2013-04-30 14:35:00,76.1,56.1,30.05,NE,47,0.0,0.0,50,0.00,,SCT041,0.00,VWS V14.01,2013-04-30 18:35:00,
2013-04-30 14:40:00,75.1,55.2,30.05,East,79,0.0,0.0,50,0.00,,SCT041,0.00,VWS V14.01,2013-04-30 18:40:00,
2013-04-30 14:45:00,74.4,55.7,30.05,North,359,0.0,0.0,52,0.00,,SCT041,0.00,VWS V14.01,2013-04-30 18:45:00,
2013-04-30 14:50:00,74.7,55.9,30.05,North,4,0.0,0.0,52,0.00,,SCT041,0.00,VWS V14.01,2013-04-30 18:50:00,
2013-04-30 14:55:00,74.9,56.1,30.05,ENE,69,0.0,1.0,52,0.00,,SCT041,0.00,VWS V14.01,2013-04-30 18:55:00,
2013-04-30 15:00:00,75.3,55.4,30.05,ENE,75,0.0,3.0,50,0.00,,SCT041,0.00,VWS V14.01,2013-04-30 19:00:00,
2013-04-30 15:05:00,75.6,56.2,30.05,NE,42,1.0,3.0,51,0.00,,CLR,0.00,VWS V14.01,2013-04-30 19:05:00,
2013-04-30 15:10:00,75.6,54.5,30.05,NE,52,0.0,1.0,48,0.00,,CLR,0.00,VWS V14.01,2013-04-30 19:10:00,
2013-04-30 15:15:00,75.3,55.9,30.05,North,0,0.0,1.0,51,0.00,,CLR,0.00,VWS V14.01,2013-04-30 19:15:00,
2013-04-30 15:20:00,75.6,57.3,30.05,NE,41,0.0,1.0,53,0.00,,CLR,0.00,VWS V14.01,2013-04-30 19:20:00,
2013-04-30 15:25:00,76.0,55.5,30.05,NE,41,0.0,1.0,49,0.00,,CLR,0.00,VWS V14.01,2013-04-30 19:25:00,
2013-04-30 15:30:00,75.8,56.9,30.04,NE,42,0.0,0.0,52,0.00,,CLR,0.00,VWS V14.01,2013-04-30 19:30:00,
2013-04-30 15:35:00,75.6,54.5,30.04,ESE,110,0.0,0.0,48,0.00,,CLR,0.00,VWS V14.01,2013-04-30 19:35:00,
2013-04-30 15:40:00,75.6,56.8,30.04,NNE,31,0.0,1.0,52,0.00,,CLR,0.00,VWS V14.01,2013-04-30 19:40:00,
2013-04-30 15:45:00,76.1,56.7,30.03,ESE,113,7.0,10.0,51,0.00,,OVC090,0.00,VWS V14.01,2013-04-30 19:45:00,
2013-04-30 15:46:00,76.3,56.9,30.03,East,83,5.0,11.0,51,0.00,,CLR,0.00,VWS V14.01,2013-04-30 19:46:00,
2013-04-30 15:51:00,76.3,55.8,30.04,SW,217,0.0,11.0,49,0.00,,CLR,0.00,VWS V14.01,2013-04-30 19:51:00,
2013-04-30 15:56:00,76.3,54.0,30.04,East,83,0.0,0.0,46,0.00,,CLR,0.00,VWS V14.01,2013-04-30 19:56:00,
2013-04-30 16:00:00,76.8,57.9,30.03,ENE,73,0.0,0.0,52,0.00,,OVC090,0.00,VWS V14.01,2013-04-30 20:00:00,
2013-04-30 16:01:00,76.7,57.8,30.03,ENE,73,0.0,0.0,52,0.00,,CLR,0.00,VWS V14.01,2013-04-30 20:01:00,
2013-04-30 16:06:00,76.8,55.7,30.03,ESE,119,0.0,0.0,48,0.00,,CLR,0.00,VWS V14.01,2013-04-30 20:06:00,
2013-04-30 16:11:00,76.3,55.8,30.03,ESE,119,0.0,0.0,49,0.00,,CLR,0.00,VWS V14.01,2013-04-30 20:11:00,
2013-04-30 16:15:00,76.3,57.4,30.03,ESE,119,0.0,0.0,52,0.00,,OVC090,0.00,VWS V14.01,2013-04-30 20:15:00,
2013-04-30 16:16:00,76.5,55.9,30.03,ESE,107,0.0,0.0,49,0.00,,CLR,0.00,VWS V14.01,2013-04-30 20:16:00,
2013-04-30 16:21:00,77.0,54.7,30.03,East,80,0.0,3.0,46,0.00,,CLR,0.00,VWS V14.01,2013-04-30 20:21:00,
2013-04-30 16:26:00,76.8,55.1,30.03,ENE,78,0.0,5.0,47,0.00,,CLR,0.00,VWS V14.01,2013-04-30 20:26:00,
2013-04-30 16:30:00,77.0,54.1,30.03,ENE,68,0.0,5.0,45,0.00,,OVC090,0.00,VWS V14.01,2013-04-30 20:30:00,
2013-04-30 16:31:00,77.2,54.2,30.03,ENE,68,0.0,5.0,45,0.00,,CLR,0.00,VWS V14.01,2013-04-30 20:31:00,
2013-04-30 16:36:00,77.9,56.1,30.03,NNE,16,0.0,5.0,47,0.00,,CLR,0.00,VWS V14.01,2013-04-30 20:36:00,
2013-04-30 16:41:00,78.1,55.7,30.03,East,95,0.0,6.0,46,0.00,,CLR,0.00,VWS V14.01,2013-04-30 20:41:00,
2013-04-30 16:45:00,77.6,54.6,30.03,East,82,0.0,6.0,45,0.00,,OVC090,0.00,VWS V14.01,2013-04-30 20:45:00,
2013-04-30 16:46:00,77.6,55.8,30.03,East,100,0.0,6.0,47,0.00,,CLR,0.00,VWS V14.01,2013-04-30 20:46:00,
2013-04-30 16:51:00,76.7,53.2,30.03,ENE,58,0.0,6.0,44,0.00,,CLR,0.00,VWS V14.01,2013-04-30 20:51:00,
2013-04-30 16:56:00,77.0,53.4,30.02,ENE,71,0.0,6.0,44,0.00,,CLR,0.00,VWS V14.01,2013-04-30 20:56:00,
2013-04-30 17:00:00,77.4,56.2,30.02,ENE,71,0.0,1.0,48,0.00,,OVC090,0.00,VWS V14.01,2013-04-30 21:00:00,
2013-04-30 17:01:00,77.4,56.2,30.02,NE,38,0.0,1.0,48,0.00,,CLR,0.00,VWS V14.01,2013-04-30 21:01:00,
2013-04-30 17:06:00,77.6,54.0,30.02,ENE,76,0.0,6.0,44,0.00,,CLR,0.00,VWS V14.01,2013-04-30 21:06:00,
2013-04-30 17:11:00,77.2,54.8,30.02,ENE,78,0.0,6.0,46,0.00,,CLR,0.00,VWS V14.01,2013-04-30 21:11:00,
2013-04-30 17:15:00,76.8,53.9,30.02,NE,48,0.0,7.0,45,0.00,,OVC090,0.00,VWS V14.01,2013-04-30 21:15:00,
2013-04-30 17:16:00,76.8,53.9,30.02,NE,48,0.0,7.0,45,0.00,,CLR,0.00,VWS V14.01,2013-04-30 21:16:00,
2013-04-30 17:21:00,77.2,54.8,30.02,NE,48,0.0,0.0,46,0.00,,CLR,0.00,VWS V14.01,2013-04-30 21:21:00,
2013-04-30 17:26:00,77.2,53.6,30.02,NE,48,0.0,0.0,44,0.00,,CLR,0.00,VWS V14.01,2013-04-30 21:26:00,
2013-04-30 17:30:00,77.2,55.4,30.02,NE,54,0.0,5.0,47,0.00,,OVC090,0.00,VWS V14.01,2013-04-30 21:30:00,
2013-04-30 17:31:00,77.2,54.2,30.02,NE,54,0.0,5.0,45,0.00,,CLR,0.00,VWS V14.01,2013-04-30 21:31:00,
2013-04-30 17:36:00,77.4,54.4,30.02,NE,52,0.0,5.0,45,0.00,,CLR,0.00,VWS V14.01,2013-04-30 21:36:00,
2013-04-30 17:41:00,77.4,55.6,30.02,ENE,68,4.0,4.0,47,0.00,,CLR,0.00,VWS V14.01,2013-04-30 21:41:00,
2013-04-30 17:45:00,77.4,53.2,30.02,ENE,66,0.0,5.0,43,0.00,,OVC090,0.00,VWS V14.01,2013-04-30 21:45:00,
2013-04-30 17:46:00,77.4,55.0,30.02,NE,45,0.0,5.0,46,0.00,,CLR,0.00,VWS V14.01,2013-04-30 21:46:00,
2013-04-30 17:51:00,77.0,53.4,30.02,NE,45,0.0,0.0,44,0.00,,CLR,0.00,VWS V14.01,2013-04-30 21:51:00,
2013-04-30 17:56:00,76.8,54.5,30.02,NE,47,0.0,1.0,46,0.00,,CLR,0.00,VWS V14.01,2013-04-30 21:56:00,
2013-04-30 18:00:00,77.0,54.7,30.02,NE,35,0.0,2.0,46,0.00,,OVC090,0.00,VWS V14.01,2013-04-30 22:00:00,
2013-04-30 18:01:00,77.2,54.8,30.02,East,90,4.0,5.0,46,0.00,,CLR,0.00,VWS V14.01,2013-04-30 22:01:00,
2013-04-30 18:06:00,77.2,54.8,30.02,East,88,0.0,5.0,46,0.00,,CLR,0.00,VWS V14.01,2013-04-30 22:06:00,
2013-04-30 18:11:00,77.2,54.2,30.02,East,89,0.0,1.0,45,0.00,,CLR,0.00,VWS V14.01,2013-04-30 22:11:00,
2013-04-30 18:15:00,77.0,54.1,30.02,East,86,0.0,1.0,45,0.00,,OVC090,0.00,VWS V14.01,2013-04-30 22:15:00,
2013-04-30 18:16:00,76.8,53.9,30.02,East,86,0.0,1.0,45,0.00,,CLR,0.00,VWS V14.01,2013-04-30 22:16:00,
2013-04-30 18:21:00,76.7,54.4,30.02,East,83,0.0,1.0,46,0.00,,CLR,0.00,VWS V14.01,2013-04-30 22:21:00,
2013-04-30 18:26:00,76.5,54.8,30.02,ENE,71,0.0,6.0,47,0.00,,CLR,0.00,VWS V14.01,2013-04-30 22:26:00,
2013-04-30 18:30:00,76.5,54.8,30.02,ENE,71,0.0,6.0,47,0.00,,OVC090,0.00,VWS V14.01,2013-04-30 22:30:00,
2013-04-30 18:31:00,76.3,52.8,30.02,ENE,68,0.0,6.0,44,0.00,,CLR,0.00,VWS V14.01,2013-04-30 22:31:00,
2013-04-30 18:36:00,76.1,53.2,30.02,ENE,78,0.0,2.0,45,0.00,,CLR,0.00,VWS V14.01,2013-04-30 22:36:00,
2013-04-30 18:41:00,76.0,53.8,30.02,ENE,73,0.0,2.0,46,0.00,,CLR,0.00,VWS V14.01,2013-04-30 22:41:00,
2013-04-30 18:45:00,76.0,53.8,30.02,East,88,0.0,2.0,46,0.00,,OVC090,0.00,VWS V14.01,2013-04-30 22:45:00,
2013-04-30 18:46:00,76.0,53.8,30.02,East,88,0.0,1.0,46,0.00,,CLR,0.00,VWS V14.01,2013-04-30 22:46:00,
2013-04-30 18:51:00,75.8,53.6,30.02,ENE,73,0.0,1.0,46,0.00,,CLR,0.00,VWS V14.01,2013-04-30 22:51:00,
2013-04-30 18:56:00,75.6,54.5,30.02,ENE,73,0.0,1.0,48,0.00,,CLR,0.00,VWS V14.01,2013-04-30 22:56:00,
2013-04-30 19:00:00,75.6,54.0,30.03,ENE,76,0.0,5.0,47,0.00,,OVC090,0.00,VWS V14.01,2013-04-30 23:00:00,
2013-04-30 19:01:00,75.4,53.8,30.03,ENE,76,0.0,5.0,47,0.00,,CLR,0.00,VWS V14.01,2013-04-30 23:01:00,
2013-04-30 19:06:00,75.4,54.9,30.03,East,80,0.0,5.0,49,0.00,,CLR,0.00,VWS V14.01,2013-04-30 23:06:00,
2013-04-30 19:11:00,75.1,54.1,30.03,ENE,75,0.0,1.0,48,0.00,,CLR,0.00,VWS V14.01,2013-04-30 23:11:00,
2013-04-30 19:15:00,75.1,53.5,30.03,East,83,0.0,1.0,47,0.00,,OVC090,0.00,VWS V14.01,2013-04-30 23:15:00,
2013-04-30 19:16:00,75.1,54.1,30.03,East,80,0.0,1.0,48,0.00,,CLR,0.00,VWS V14.01,2013-04-30 23:16:00,
2013-04-30 19:21:00,74.9,53.9,30.03,ENE,73,0.0,1.0,48,0.00,,CLR,0.00,VWS V14.01,2013-04-30 23:21:00,
2013-04-30 19:26:00,74.7,54.3,30.03,ENE,73,0.0,1.0,49,0.00,,CLR,0.00,VWS V14.01,2013-04-30 23:26:00,
2013-04-30 19:30:00,74.6,54.8,30.03,ENE,73,0.0,1.0,50,0.00,,OVC090,0.00,VWS V14.01,2013-04-30 23:30:00,
2013-04-30 19:31:00,74.4,54.0,30.03,ENE,73,0.0,1.0,49,0.00,,CLR,0.00,VWS V14.01,2013-04-30 23:31:00,
2013-04-30 19:36:00,74.2,53.8,30.03,ENE,73,0.0,3.0,49,0.00,,CLR,0.00,VWS V14.01,2013-04-30 23:36:00,
2013-04-30 19:41:00,74.0,53.7,30.03,ENE,75,0.0,1.0,49,0.00,,CLR,0.00,VWS V14.01,2013-04-30 23:41:00,
2013-04-30 19:45:00,73.9,53.6,30.04,ENE,75,0.0,1.0,49,0.00,,OVC090,0.00,VWS V14.01,2013-04-30 23:45:00,
2013-04-30 19:47:00,73.7,53.4,30.04,ENE,75,0.0,1.0,49,0.00,,CLR,0.00,VWS V14.01,2013-04-30 23:47:00,
2013-04-30 19:52:00,73.5,54.3,30.04,ENE,75,0.0,0.0,51,0.00,,CLR,0.00,VWS V14.01,2013-04-30 23:52:00,
2013-04-30 19:57:00,73.0,53.8,30.04,ENE,75,0.0,1.0,51,0.00,,CLR,0.00,VWS V14.01,2013-04-30 23:57:00,
2013-04-30 20:00:00,72.7,54.1,30.04,ENE,75,0.0,1.0,52,0.00,,OVC090,0.00,VWS V14.01,2013-05-01 00:00:00,
2013-04-30 20:02:00,72.5,54.4,30.04,East,85,0.0,1.0,53,0.00,,CLR,0.00,VWS V14.01,2013-05-01 00:02:00,
2013-04-30 20:07:00,72.1,53.5,30.04,East,86,0.0,1.0,52,0.00,,CLR,0.00,VWS V14.01,2013-05-01 00:07:00,
2013-04-30 20:12:00,71.6,54.1,30.04,East,79,0.0,0.0,54,0.00,,CLR,0.00,VWS V14.01,2013-05-01 00:12:00,
2013-04-30 20:15:00,71.3,53.8,30.05,East,79,0.0,0.0,54,0.00,,OVC090,0.00,VWS V14.01,2013-05-01 00:15:00,
2013-04-30 20:17:00,71.1,54.1,30.05,East,80,0.0,0.0,55,0.00,,CLR,0.00,VWS V14.01,2013-05-01 00:17:00,
2013-04-30 20:22:00,70.8,53.8,30.05,East,80,0.0,1.0,55,0.00,,CLR,0.00,VWS V14.01,2013-05-01 00:22:00,
2013-04-30 20:27:00,70.3,53.9,30.05,East,80,0.0,1.0,56,0.00,,CLR,0.00,VWS V14.01,2013-05-01 00:27:00,
2013-04-30 20:30:00,70.1,53.7,30.05,East,80,0.0,0.0,56,0.00,,OVC090,0.00,VWS V14.01,2013-05-01 00:30:00,
2013-04-30 20:32:00,69.9,54.5,30.05,ENE,69,0.0,0.0,58,0.00,,CLR,0.00,VWS V14.01,2013-05-01 00:32:00,
2013-04-30 20:37:00,69.4,54.0,30.06,ENE,69,0.0,0.0,58,0.00,,CLR,0.00,VWS V14.01,2013-05-01 00:37:00,
2013-04-30 20:42:00,69.1,53.7,30.06,ENE,69,0.0,0.0,58,0.00,,CLR,0.00,VWS V14.01,2013-05-01 00:42:00,
2013-04-30 20:45:00,68.8,53.9,30.06,ENE,69,0.0,0.0,59,0.00,,OVC090,0.00,VWS V14.01,2013-05-01 00:45:00,
2013-04-30 20:47:00,68.6,53.7,30.06,ENE,69,0.0,0.0,59,0.00,,CLR,0.00,VWS V14.01,2013-05-01 00:47:00,
2013-04-30 20:52:00,68.3,53.4,30.06,ENE,69,0.0,0.0,59,0.00,,CLR,0.00,VWS V14.01,2013-05-01 00:52:00,
2013-04-30 20:57:00,67.9,53.5,30.06,ENE,69,0.0,0.0,60,0.00,,CLR,0.00,VWS V14.01,2013-05-01 00:57:00,
2013-04-30 21:00:00,67.8,53.4,30.07,ENE,69,0.0,0.0,60,0.00,,OVC090,0.00,VWS V14.01,2013-05-01 01:00:00,
2013-04-30 21:02:00,67.6,53.2,30.07,ENE,69,0.0,0.0,60,0.00,,CLR,0.00,VWS V14.01,2013-05-01 01:02:00,
2013-04-30 21:07:00,67.3,53.4,30.06,ENE,69,0.0,0.0,61,0.00,,CLR,0.00,VWS V14.01,2013-05-01 01:07:00,
2013-04-30 21:12:00,66.9,53.0,30.06,ENE,69,0.0,0.0,61,0.00,,CLR,0.00,VWS V14.01,2013-05-01 01:12:00,
2013-04-30 21:15:00,66.8,52.9,30.07,ENE,69,0.0,0.0,61,0.00,,OVC090,0.00,VWS V14.01,2013-05-01 01:15:00,
2013-04-30 21:17:00,66.6,52.8,30.07,ENE,69,0.0,0.0,61,0.00,,CLR,0.00,VWS V14.01,2013-05-01 01:17:00,
2013-04-30 21:22:00,66.3,52.9,30.07,ENE,69,0.0,0.0,62,0.00,,CLR,0.00,VWS V14.01,2013-05-01 01:22:00,
2013-04-30 21:27:00,66.0,53.9,30.07,ENE,69,0.0,0.0,65,0.00,,CLR,0.00,VWS V14.01,2013-05-01 01:27:00,
2013-04-30 21:30:00,65.8,53.7,30.07,ENE,69,0.0,0.0,65,0.00,,OVC090,0.00,VWS V14.01,2013-05-01 01:30:00,
2013-04-30 21:32:00,65.5,53.8,30.07,ENE,69,0.0,0.0,66,0.00,,CLR,0.00,VWS V14.01,2013-05-01 01:32:00,
2013-04-30 21:37:00,65.0,53.8,30.08,ENE,69,0.0,0.0,67,0.00,,CLR,0.00,VWS V14.01,2013-05-01 01:37:00,
2013-04-30 21:42:00,64.5,53.7,30.08,ENE,69,0.0,0.0,68,0.00,,CLR,0.00,VWS V14.01,2013-05-01 01:42:00,
2013-04-30 21:45:00,64.3,53.5,30.08,ENE,69,0.0,0.0,68,0.00,,OVC090,0.00,VWS V14.01,2013-05-01 01:45:00,
2013-04-30 21:47:00,64.2,53.4,30.08,ENE,69,0.0,0.0,68,0.00,,CLR,0.00,VWS V14.01,2013-05-01 01:47:00,
2013-04-30 21:52:00,63.9,53.5,30.08,ENE,69,0.0,0.0,69,0.00,,CLR,0.00,VWS V14.01,2013-05-01 01:52:00,
2013-04-30 21:57:00,63.4,53.5,30.08,ENE,69,0.0,0.0,70,0.00,,CLR,0.00,VWS V14.01,2013-05-01 01:57:00,
2013-04-30 22:00:00,63.2,53.3,30.09,ENE,69,0.0,0.0,70,0.00,,OVC090,0.00,VWS V14.01,2013-05-01 02:00:00,
2013-04-30 22:02:00,63.1,53.2,30.09,ENE,69,0.0,0.0,70,0.00,,CLR,0.00,VWS V14.01,2013-05-01 02:02:00,
2013-04-30 22:07:00,62.7,53.2,30.08,ENE,69,0.0,0.0,71,0.00,,CLR,0.00,VWS V14.01,2013-05-01 02:07:00,
2013-04-30 22:12:00,62.4,53.3,30.08,ENE,69,0.0,0.0,72,0.00,,CLR,0.00,VWS V14.01,2013-05-01 02:12:00,
2013-04-30 22:15:00,62.3,53.2,30.08,ENE,69,0.0,0.0,72,0.00,,OVC090,0.00,VWS V14.01,2013-05-01 02:15:00,
2013-04-30 22:17:00,62.1,53.0,30.08,ENE,69,0.0,0.0,72,0.00,,CLR,0.00,VWS V14.01,2013-05-01 02:17:00,
2013-04-30 22:22:00,61.8,53.1,30.08,ENE,69,0.0,0.0,73,0.00,,CLR,0.00,VWS V14.01,2013-05-01 02:22:00,
2013-04-30 22:27:00,61.3,53.0,30.08,ENE,69,0.0,0.0,74,0.00,,CLR,0.00,VWS V14.01,2013-05-01 02:27:00,
2013-04-30 22:30:00,61.2,53.2,30.08,ENE,69,0.0,0.0,75,0.00,,OVC090,0.00,VWS V14.01,2013-05-01 02:30:00,
2013-04-30 22:32:00,60.9,52.9,30.08,ENE,69,0.0,0.0,75,0.00,,CLR,0.00,VWS V14.01,2013-05-01 02:32:00,
2013-04-30 22:37:00,60.5,52.9,30.08,ENE,69,0.0,0.0,76,0.00,,CLR,0.00,VWS V14.01,2013-05-01 02:37:00,
2013-04-30 22:42:00,60.2,52.6,30.08,ENE,69,0.0,0.0,76,0.00,,CLR,0.00,VWS V14.01,2013-05-01 02:42:00,
2013-04-30 22:45:00,60.1,52.5,30.08,ENE,69,0.0,0.0,76,0.00,,OVC090,0.00,VWS V14.01,2013-05-01 02:45:00,
2013-04-30 22:47:00,59.9,52.7,30.08,ENE,69,0.0,0.0,77,0.00,,CLR,0.00,VWS V14.01,2013-05-01 02:47:00,
2013-04-30 22:52:00,59.6,52.4,30.08,ENE,69,0.0,0.0,77,0.00,,CLR,0.00,VWS V14.01,2013-05-01 02:52:00,
2013-04-30 22:57:00,59.5,52.6,30.08,ENE,69,0.0,0.0,78,0.00,,CLR,0.00,VWS V14.01,2013-05-01 02:57:00,
2013-04-30 23:00:00,59.3,52.5,30.08,ENE,69,0.0,0.0,78,0.00,,OVC090,0.00,VWS V14.01,2013-05-01 03:00:00,
2013-04-30 23:02:00,59.2,52.7,30.08,ENE,69,0.0,0.0,79,0.00,,CLR,0.00,VWS V14.01,2013-05-01 03:02:00,
2013-04-30 23:07:00,59.0,52.5,30.08,ENE,69,0.0,0.0,79,0.00,,CLR,0.00,VWS V14.01,2013-05-01 03:07:00,
2013-04-30 23:12:00,58.7,52.2,30.08,ENE,69,0.0,0.0,79,0.00,,CLR,0.00,VWS V14.01,2013-05-01 03:12:00,
2013-04-30 23:15:00,58.6,52.1,30.08,ENE,69,0.0,0.0,79,0.00,,OVC090,0.00,VWS V14.01,2013-05-01 03:15:00,
2013-04-30 23:17:00,58.6,52.5,30.08,ENE,69,0.0,0.0,80,0.00,,CLR,0.00,VWS V14.01,2013-05-01 03:17:00,
2013-04-30 23:22:00,58.3,52.2,30.08,ENE,69,0.0,0.0,80,0.00,,CLR,0.00,VWS V14.01,2013-05-01 03:22:00,
2013-04-30 23:28:00,58.1,52.3,30.08,ENE,69,0.0,0.0,81,0.00,,CLR,0.00,VWS V14.01,2013-05-01 03:28:00,
2013-04-30 23:30:00,58.0,52.2,30.08,ENE,69,0.0,0.0,81,0.00,,OVC090,0.00,VWS V14.01,2013-05-01 03:30:00,
2013-04-30 23:33:00,58.0,52.2,30.08,ENE,69,0.0,0.0,81,0.00,,CLR,0.00,VWS V14.01,2013-05-01 03:33:00,
2013-04-30 23:37:00,57.6,51.8,30.08,ENE,69,0.0,0.0,81,0.00,,CLR,0.00,VWS V14.01,2013-05-01 03:37:00,
2013-04-30 23:43:00,57.5,52.1,30.07,ENE,69,0.0,0.0,82,0.00,,CLR,0.00,VWS V14.01,2013-05-01 03:43:00,
2013-04-30 23:45:00,57.5,52.1,30.07,ENE,69,0.0,0.0,82,0.00,,OVC090,0.00,VWS V14.01,2013-05-01 03:45:00,
2013-04-30 23:48:00,57.3,51.9,30.07,ENE,69,0.0,0.0,82,0.00,,CLR,0.00,VWS V14.01,2013-05-01 03:48:00,
2013-04-30 23:53:00,57.2,51.8,30.08,ENE,69,0.0,0.0,82,0.00,,CLR,0.00,VWS V14.01,2013-05-01 03:53:00,
2013-04-30 23:58:00,57.0,51.9,30.08,ENE,69,0.0,0.0,83,0.00,,CLR,0.00,VWS V14.01,2013-05-01 03:58:00,